Time;durP1;ratioP1;P1;durP2;ratioP2;P2;SDS_P1;SDS_P2;PMS_P1;PMS_P2;Temp;Humidity;BMP_temperature;BMP_pressure;BME280_temperature;BME280_humidity;BME280_pressure;Samples;Min_cycle;Max_cycle;Signal;HPM_P1;HPM_P2
2023/01/13 00:00:08;;;;;;;0.60;0.30;;;;;;;11.82;62.78;99122.06;347693;28;1304;-69
2023/01/13 00:00:20;;;;;;;2.42;0.50;;;;;;;11.71;63.10;99116.50;346802;28;1673;-70
2023/01/13 00:00:32;;;;;;;3.50;0.57;;;;;;;11.68;63.14;99085.41;347564;28;1049;-69
2023/01/13 00:00:44;;;;;;;2.75;0.50;;;;;;;11.74;62.81;99112.00;347444;28;1261;-70
2023/01/13 00:00:57;;;;;;;1.35;0.43;;;;;;;11.68;63.24;99124.47;347475;28;1047;-70
2023/01/13 00:01:14;;;;;;;0.90;0.40;;;;;;;11.68;63.43;99116.66;346176;28;1030;-70
2023/01/13 00:01:27;;;;;;;1.30;0.50;;;;;;;11.68;63.24;99111.44;346149;28;1082;-69
2023/01/13 00:01:39;;;;;;;0.93;0.40;;;;;;;11.64;63.59;99118.53;345797;28;1639;-69
2023/01/13 00:01:51;;;;;;;0.75;0.45;;;;;;;11.63;63.62;99121.22;344694;28;1169;-70
2023/01/13 00:02:03;;;;;;;0.82;0.43;;;;;;;11.64;63.54;99113.34;345662;28;1975;-69
2023/01/13 00:02:16;;;;;;;0.70;0.45;;;;;;;11.58;63.51;99118.81;344987;28;1106;-70
2023/01/13 00:02:28;;;;;;;0.85;0.50;;;;;;;11.61;63.52;99118.69;346212;28;1098;-69
2023/01/13 00:02:40;;;;;;;2.55;0.50;;;;;;;11.55;63.80;99109.41;346156;28;1078;-70
2023/01/13 00:02:52;;;;;;;3.10;0.50;;;;;;;11.62;63.54;99116.94;345978;28;1197;-69
2023/01/13 00:03:04;;;;;;;2.45;0.45;;;;;;;11.60;63.78;99115.22;344679;28;991;-70
2023/01/13 00:03:16;;;;;;;2.53;0.50;;;;;;;11.65;63.71;99119.38;345469;28;2087;-70
2023/01/13 00:03:28;;;;;;;3.00;0.50;;;;;;;11.66;63.63;99121.09;346579;28;1961;-71
2023/01/13 00:03:40;;;;;;;2.35;0.40;;;;;;;11.72;63.23;99113.00;345755;28;1343;-69
2023/01/13 00:03:52;;;;;;;2.17;0.40;;;;;;;11.75;63.36;99131.94;346667;28;1081;-70
2023/01/13 00:04:04;;;;;;;1.20;0.40;;;;;;;11.78;63.39;99120.53;347562;28;1112;-70
2023/01/13 00:04:16;;;;;;;1.10;0.40;;;;;;;11.85;63.20;99121.06;346858;28;1860;-71
2023/01/13 00:04:28;;;;;;;1.23;0.50;;;;;;;11.84;63.10;99103.78;347709;28;1304;-70
2023/01/13 00:04:40;;;;;;;2.08;0.50;;;;;;;11.86;63.02;99118.41;347477;28;1092;-69
2023/01/13 00:04:52;;;;;;;1.90;0.40;;;;;;;11.82;63.09;99110.81;347393;28;1093;-70
2023/01/13 00:05:04;;;;;;;1.83;0.40;;;;;;;11.77;63.03;99124.03;346190;28;1681;-70
2023/01/13 00:05:17;;;;;;;1.27;0.40;;;;;;;11.67;63.27;99115.81;346958;28;1803;-70
2023/01/13 00:05:29;;;;;;;0.85;0.40;;;;;;;11.71;63.58;99122.56;347166;28;2072;-69
2023/01/13 00:05:41;;;;;;;1.45;0.50;;;;;;;11.73;63.10;99112.06;347591;28;1058;-69
2023/01/13 00:05:53;;;;;;;2.30;0.50;;;;;;;11.70;63.25;99117.44;347501;28;1165;-70
2023/01/13 00:06:07;;;;;;;2.10;0.70;;;;;;;11.67;63.35;99115.81;347507;28;1024;-70
2023/01/13 00:06:24;;;;;;;1.88;0.68;;;;;;;11.69;63.45;99115.72;347250;28;1800;-70
2023/01/13 00:06:36;;;;;;;1.15;0.40;;;;;;;11.79;63.28;99112.66;346902;28;1535;-69
2023/01/13 00:06:48;;;;;;;1.20;0.40;;;;;;;11.70;63.22;99117.44;347333;28;1829;-69
2023/01/13 00:07:00;;;;;;;1.45;0.52;;;;;;;11.71;63.14;99119.09;347365;28;1139;-69
2023/01/13 00:07:12;;;;;;;1.30;0.60;;;;;;;11.76;62.83;99151.84;347416;28;1763;-69
2023/01/13 00:07:24;;;;;;;1.25;0.60;;;;;;;11.79;62.96;99111.78;347230;28;1195;-70
2023/01/13 00:07:38;;;;;;;0.80;0.50;;;;;;;11.79;62.66;99109.16;346072;28;1854;-69
2023/01/13 00:07:51;;;;;;;1.65;0.50;;;;;;;11.80;62.45;99106.50;347346;28;1043;-70
2023/01/13 00:08:05;;;;;;;1.70;0.50;;;;;;;11.78;62.59;99110.09;347412;28;1860;-71
2023/01/13 00:08:17;;;;;;;0.88;0.40;;;;;;;11.78;63.26;99110.09;346214;28;1666;-69
2023/01/13 00:08:29;;;;;;;1.05;0.30;;;;;;;11.75;63.17;99112.84;347510;28;1038;-69
2023/01/13 00:08:41;;;;;;;1.33;0.40;;;;;;;11.73;63.02;99112.06;346921;28;1777;-70
2023/01/13 00:08:53;;;;;;;1.95;0.40;;;;;;;11.72;63.15;99105.19;346252;28;1815;-69
2023/01/13 00:09:05;;;;;;;1.20;0.43;;;;;;;11.80;63.11;99108.28;346044;28;1087;-70
2023/01/13 00:09:17;;;;;;;1.85;0.52;;;;;;;11.77;62.63;99113.59;346306;28;1286;-68
2023/01/13 00:09:29;;;;;;;1.52;0.50;;;;;;;11.77;62.70;99104.06;347713;28;1205;-68
2023/01/13 00:09:43;;;;;;;1.38;0.43;;;;;;;11.79;62.73;99107.44;347085;28;1666;-70
2023/01/13 00:09:55;;;;;;;1.40;0.40;;;;;;;11.79;62.85;99110.03;348376;28;1460;-70
2023/01/13 00:10:09;;;;;;;1.70;0.50;;;;;;;11.64;63.41;99112.50;347569;28;1190;-69
2023/01/13 00:10:21;;;;;;;2.35;0.60;;;;;;;11.67;63.35;99118.41;347496;28;1285;-69
2023/01/13 00:10:34;;;;;;;2.80;0.70;;;;;;;11.72;63.29;99121.63;347452;28;1079;-69
2023/01/13 00:10:47;;;;;;;2.30;0.70;;;;;;;11.71;63.39;99103.47;346412;28;1844;-69
2023/01/13 00:10:59;;;;;;;1.25;0.60;;;;;;;11.79;62.83;99111.78;346463;28;1857;-69
2023/01/13 00:11:11;;;;;;;1.55;0.52;;;;;;;11.77;62.69;99098.84;347277;28;1629;-75
2023/01/13 00:11:24;;;;;;;1.40;0.50;;;;;;;11.80;62.60;99100.47;345834;28;1260;-70
2023/01/13 00:11:37;;;;;;;0.90;0.40;;;;;;;11.80;62.79;99113.47;345803;28;1382;-70
2023/01/13 00:11:48;;;;;;;1.45;0.40;;;;;;;11.81;62.41;99094.31;345917;28;1185;-70
2023/01/13 00:12:00;;;;;;;1.10;0.40;;;;;;;11.76;62.88;99106.72;345321;28;1670;-69
2023/01/13 00:12:12;;;;;;;1.20;0.40;;;;;;;11.78;62.86;99110.09;346105;28;1217;-69
2023/01/13 00:12:24;;;;;;;0.75;0.38;;;;;;;11.80;62.45;99111.72;346763;28;1643;-71
2023/01/13 00:12:40;;;;;;;1.20;0.35;;;;;;;11.81;62.56;99099.53;347302;28;1739;-69
2023/01/13 00:12:52;;;;;;;1.80;0.50;;;;;;;11.81;62.93;99109.94;347573;28;1213;-69
2023/01/13 00:13:04;;;;;;;2.00;0.60;;;;;;;11.82;62.53;99101.22;346650;28;1742;-70
2023/01/13 00:13:25;;;;;;;1.48;0.50;;;;;;;11.80;62.88;99105.66;347266;28;1288;-70
2023/01/13 00:13:37;;;;;;;0.82;0.40;;;;;;;11.78;63.02;99110.09;346884;28;1701;-70
2023/01/13 00:13:49;;;;;;;1.50;0.40;;;;;;;11.74;63.00;99117.22;346608;28;1554;-69
2023/01/13 00:14:01;;;;;;;1.77;0.50;;;;;;;11.72;62.93;99111.22;347570;28;1148;-69
2023/01/13 00:14:13;;;;;;;1.60;0.50;;;;;;;11.79;63.19;99116.97;347343;28;1650;-70
2023/01/13 00:14:51;;;;;;;2.10;0.50;;;;;;;11.76;63.15;99109.34;346584;28;1130;-69
2023/01/13 00:15:16;;;;;;;1.73;0.50;;;;;;;11.73;63.27;99110.31;338925;29;2101;-69
2023/01/13 00:15:59;;;;;;;0.95;0.40;;;;;;;11.80;62.96;99116.09;340298;28;1979;-69
2023/01/13 00:16:19;;;;;;;0.40;0.32;;;;;;;11.84;62.68;99093.34;337721;29;1845;-72
2023/01/13 00:16:48;;;;;;;2.13;0.50;;;;;;;11.87;62.46;99112.28;341930;28;1630;-71
2023/01/13 00:17:02;;;;;;;1.63;0.40;;;;;;;11.87;62.91;99112.28;341579;28;1664;-69
2023/01/13 00:17:14;;;;;;;1.60;0.47;;;;;;;11.82;63.02;99118.63;339627;29;1112;-70
2023/01/13 00:17:25;;;;;;;1.40;0.40;;;;;;;11.77;63.20;99111.00;339199;28;1833;-71
2023/01/13 00:17:38;;;;;;;1.50;0.47;;;;;;;11.76;63.26;99133.59;339193;29;1641;-69
2023/01/13 00:17:50;;;;;;;1.02;0.50;;;;;;;11.76;63.17;99120.59;346888;28;1095;-69
2023/01/13 00:18:02;;;;;;;1.42;0.55;;;;;;;11.79;62.92;99107.44;346006;28;1248;-68
2023/01/13 00:18:14;;;;;;;1.50;0.50;;;;;;;11.78;63.06;99120.53;344950;28;2209;-69
2023/01/13 00:18:27;;;;;;;1.45;0.43;;;;;;;11.75;63.19;99094.59;345322;28;1758;-69
2023/01/13 00:18:39;;;;;;;1.00;0.38;;;;;;;11.80;63.26;99079.63;346135;28;1760;-69
2023/01/13 00:18:51;;;;;;;0.82;0.30;;;;;;;11.84;62.89;99104.63;345940;28;1886;-70
2023/01/13 00:19:03;;;;;;;0.90;0.40;;;;;;;11.87;62.77;99114.91;345810;28;1925;-69
2023/01/13 00:19:14;;;;;;;1.00;0.38;;;;;;;11.82;63.48;99109.03;346562;28;1062;-69
2023/01/13 00:19:27;;;;;;;1.00;0.40;;;;;;;11.77;63.41;99124.03;346081;28;1063;-69
2023/01/13 00:19:39;;;;;;;1.00;0.40;;;;;;;11.80;62.95;99147.34;347211;28;1278;-69
2023/01/13 00:19:51;;;;;;;0.65;0.40;;;;;;;11.81;63.38;99091.72;347397;28;1141;-68
2023/01/13 00:20:03;;;;;;;0.80;0.38;;;;;;;11.70;63.49;99112.22;347588;28;1105;-69
2023/01/13 00:20:16;;;;;;;1.05;0.50;;;;;;;11.65;63.60;99114.19;347709;28;1025;-69
2023/01/13 00:20:28;;;;;;;1.35;0.50;;;;;;;11.66;63.74;99121.09;347605;28;1222;-70
2023/01/13 00:20:40;;;;;;;0.95;0.43;;;;;;;11.63;64.10;99131.63;347057;28;1818;-69
2023/01/13 00:20:59;;;;;;;0.85;0.30;;;;;;;11.64;63.83;99092.50;347827;28;1046;-70
2023/01/13 00:21:20;;;;;;;1.10;0.47;;;;;;;11.58;64.36;99096.22;347789;28;1054;-69
2023/01/13 00:21:32;;;;;;;1.42;0.50;;;;;;;11.65;63.91;99120.25;347122;28;1594;-69
2023/01/13 00:21:44;;;;;;;1.35;0.35;;;;;;;11.66;64.22;99121.09;347236;28;1882;-69
2023/01/13 00:21:56;;;;;;;3.00;0.45;;;;;;;11.58;64.22;99124.88;346451;28;1049;-68
2023/01/13 00:22:08;;;;;;;2.70;0.47;;;;;;;11.65;64.01;99109.84;346201;28;1220;-70
2023/01/13 00:22:20;;;;;;;2.58;0.47;;;;;;;11.57;64.37;99107.56;346036;28;1015;-69
2023/01/13 00:22:33;;;;;;;1.60;0.43;;;;;;;11.59;64.21;99092.72;346079;28;1077;-70
2023/01/13 00:22:51;;;;;;;1.35;0.40;;;;;;;11.62;63.89;99114.34;346057;28;1808;-70
2023/01/13 00:23:03;;;;;;;1.23;0.50;;;;;;;11.59;64.36;99104.91;347320;28;1312;-69
2023/01/13 00:23:15;;;;;;;1.63;0.55;;;;;;;11.51;64.53;99133.00;347517;28;1734;-69
2023/01/13 00:23:30;;;;;;;3.85;0.68;;;;;;;11.47;64.66;99121.06;346134;28;1058;-69
2023/01/13 00:23:42;;;;;;;4.07;0.50;;;;;;;11.47;64.48;99114.13;346042;28;1078;-69
2023/01/13 00:23:54;;;;;;;2.90;0.40;;;;;;;11.56;64.66;99095.47;346732;28;1785;-69
2023/01/13 00:24:06;;;;;;;1.83;0.50;;;;;;;11.66;63.79;99100.25;346920;28;1786;-70
2023/01/13 00:24:18;;;;;;;0.80;0.40;;;;;;;11.62;63.56;99093.50;347694;28;1310;-69
2023/01/13 00:24:30;;;;;;;0.90;0.35;;;;;;;11.59;63.92;99105.75;347458;28;1541;-69
2023/01/13 00:24:42;;;;;;;1.35;0.50;;;;;;;11.56;64.29;99110.25;347297;28;1284;-70
2023/01/13 00:24:57;;;;;;;2.08;0.68;;;;;;;11.56;64.33;99085.03;347897;28;1125;-70
2023/01/13 00:25:08;;;;;;;3.08;0.80;;;;;;;11.53;64.29;99111.22;347237;28;1665;-69
2023/01/13 00:25:21;;;;;;;3.05;0.65;;;;;;;11.53;64.12;99106.03;346962;28;1291;-69
2023/01/13 00:25:33;;;;;;;1.48;0.50;;;;;;;11.54;63.90;99092.09;347574;28;1117;-68
2023/01/13 00:25:44;;;;;;;1.55;0.40;;;;;;;11.64;63.86;99108.13;346187;28;1798;-69
2023/01/13 00:25:58;;;;;;;1.02;0.45;;;;;;;11.69;64.08;99102.72;347166;28;1098;-69
2023/01/13 00:26:19;;;;;;;0.90;0.50;;;;;;;11.63;63.98;99105.59;347693;28;1084;-70
2023/01/13 00:26:34;;;;;;;0.80;0.40;;;;;;;11.62;63.80;99111.72;346386;28;1094;-69
2023/01/13 00:26:46;;;;;;;1.17;0.40;;;;;;;11.60;64.00;99110.03;346570;28;1666;-68
2023/01/13 00:26:58;;;;;;;1.25;0.40;;;;;;;11.59;64.07;99110.94;347786;28;1038;-69
2023/01/13 00:27:10;;;;;;;1.00;0.40;;;;;;;11.64;63.76;99115.09;347117;28;2218;-69
2023/01/13 00:27:23;;;;;;;0.68;0.35;;;;;;;11.63;64.00;99095.19;346055;28;1247;-69
2023/01/13 00:27:35;;;;;;;0.70;0.30;;;;;;;11.66;64.01;99118.47;346521;28;1019;-70
2023/01/13 00:27:47;;;;;;;0.60;0.38;;;;;;;11.56;64.18;99115.44;347253;28;1074;-69
2023/01/13 00:27:59;;;;;;;1.33;0.40;;;;;;;11.55;64.03;99119.81;346426;28;1186;-70
2023/01/13 00:28:11;;;;;;;1.88;0.50;;;;;;;11.60;64.27;99106.59;346615;28;1925;-70
2023/01/13 00:28:24;;;;;;;1.90;0.40;;;;;;;11.65;64.01;99081.19;347320;28;1292;-69
2023/01/13 00:28:36;;;;;;;2.13;0.40;;;;;;;11.70;63.52;99136.50;347479;28;1046;-68
2023/01/13 00:28:48;;;;;;;2.33;0.40;;;;;;;11.70;63.50;99117.44;347499;28;1034;-69
2023/01/13 00:29:00;;;;;;;3.35;0.43;;;;;;;11.71;63.54;99108.69;347462;28;1098;-68
2023/01/13 00:29:13;;;;;;;2.80;0.40;;;;;;;11.65;63.94;99080.34;345796;28;1390;-69
2023/01/13 00:29:25;;;;;;;1.38;0.30;;;;;;;11.74;63.60;99113.78;347042;28;921;-69
2023/01/13 00:29:37;;;;;;;1.60;0.47;;;;;;;11.73;63.75;99106.84;345956;28;1278;-68
2023/01/13 00:29:48;;;;;;;1.00;0.40;;;;;;;11.73;63.38;99117.28;345911;28;1047;-68
2023/01/13 00:30:01;;;;;;;1.88;0.60;;;;;;;11.59;64.04;99105.75;346166;28;1269;-69
2023/01/13 00:30:13;;;;;;;2.40;0.70;;;;;;;11.58;64.12;99098.84;346179;28;1152;-68
2023/01/13 00:30:25;;;;;;;1.70;0.60;;;;;;;11.62;63.89;99104.75;345694;28;4688;-70
2023/01/13 00:30:37;;;;;;;1.08;0.40;;;;;;;11.52;64.64;99114.72;346143;28;1305;-70
2023/01/13 00:30:49;;;;;;;0.95;0.35;;;;;;;11.54;64.33;99086.03;346305;28;1206;-68
2023/01/13 00:31:20;;;;;;;1.77;0.30;;;;;;;11.56;64.24;99124.09;346307;28;1246;-69
2023/01/13 00:31:32;;;;;;;1.52;0.40;;;;;;;11.53;64.05;99095.63;344564;28;1354;-68
2023/01/13 00:31:44;;;;;;;1.15;0.40;;;;;;;11.51;64.36;99107.00;345951;28;1856;-70
2023/01/13 00:31:57;;;;;;;0.50;0.40;;;;;;;11.50;64.58;99108.75;346960;28;1563;-70
2023/01/13 00:32:08;;;;;;;0.60;0.40;;;;;;;11.43;64.80;99104.75;346141;28;1070;-69
2023/01/13 00:32:20;;;;;;;0.52;0.30;;;;;;;11.52;64.76;99093.91;347179;28;1280;-69
2023/01/13 00:32:32;;;;;;;0.70;0.40;;;;;;;11.47;64.66;99111.50;346091;28;1197;-69
2023/01/13 00:32:44;;;;;;;0.60;0.40;;;;;;;11.48;64.52;99115.78;345764;28;1214;-69
2023/01/13 00:32:56;;;;;;;0.68;0.43;;;;;;;11.50;64.79;99106.16;344876;28;1095;-69
2023/01/13 00:33:08;;;;;;;0.90;0.40;;;;;;;11.50;64.64;99105.31;344702;28;1270;-70
2023/01/13 00:33:20;;;;;;;1.50;0.40;;;;;;;11.51;64.37;99102.66;345362;28;1368;-68
2023/01/13 00:33:33;;;;;;;1.67;0.40;;;;;;;11.57;64.46;99106.75;346175;28;1087;-70
2023/01/13 00:33:45;;;;;;;1.83;0.40;;;;;;;11.59;64.46;99095.34;346020;28;1288;-69
2023/01/13 00:33:59;;;;;;;1.50;0.40;;;;;;;11.58;64.73;99104.03;346215;28;1607;-69
2023/01/13 00:34:11;;;;;;;1.67;0.40;;;;;;;11.58;64.44;99098.84;345921;28;1087;-69
2023/01/13 00:34:23;;;;;;;1.55;0.40;;;;;;;11.57;64.44;99096.31;347180;28;1233;-69
2023/01/13 00:34:35;;;;;;;1.48;0.40;;;;;;;11.62;64.41;99088.31;347248;28;1029;-69
2023/01/13 00:34:47;;;;;;;1.63;0.50;;;;;;;11.63;64.29;99088.22;347141;28;1169;-69
2023/01/13 00:34:59;;;;;;;2.33;0.50;;;;;;;11.53;64.29;99080.00;347436;28;1050;-69
2023/01/13 00:35:11;;;;;;;2.20;0.50;;;;;;;11.60;64.35;99099.59;345596;28;1637;-69
2023/01/13 00:35:23;;;;;;;1.90;0.50;;;;;;;11.58;64.64;99098.00;345892;28;1465;-68
2023/01/13 00:35:35;;;;;;;1.08;0.40;;;;;;;11.64;64.55;99083.88;346133;28;1100;-69
2023/01/13 00:35:57;;;;;;;1.13;0.60;;;;;;;11.55;64.85;99099.00;344615;28;1107;-70
2023/01/13 00:36:13;;;;;;;1.45;0.70;;;;;;;11.58;64.38;99093.63;343195;28;1071;-69
2023/01/13 00:36:26;;;;;;;1.65;0.40;;;;;;;11.56;64.64;99100.66;345429;28;1322;-68
2023/01/13 00:36:38;;;;;;;1.88;0.50;;;;;;;11.55;64.67;99083.38;344828;28;1180;-70
2023/01/13 00:36:51;;;;;;;2.28;0.80;;;;;;;11.55;64.78;99074.69;344941;28;1120;-68
2023/01/13 00:37:03;;;;;;;2.65;0.85;;;;;;;11.58;64.63;99092.78;344697;28;1111;-69
2023/01/13 00:37:15;;;;;;;3.40;0.70;;;;;;;11.55;64.64;99087.72;345706;28;1121;-70
2023/01/13 00:37:27;;;;;;;2.15;0.32;;;;;;;11.54;64.79;99092.09;346207;28;1372;-69
2023/01/13 00:37:39;;;;;;;1.70;0.30;;;;;;;11.49;64.63;99096.66;345802;28;1286;-69
2023/01/13 00:37:51;;;;;;;1.20;0.50;;;;;;;11.44;64.81;99098.63;346286;28;1065;-69
2023/01/13 00:38:03;;;;;;;1.75;0.60;;;;;;;11.44;65.21;99090.81;346291;28;1343;-69
2023/01/13 00:38:15;;;;;;;2.10;0.57;;;;;;;11.39;65.48;99092.78;345949;28;1290;-70
2023/01/13 00:38:30;;;;;;;2.20;0.50;;;;;;;11.39;65.52;99082.38;344818;28;1070;-69
2023/01/13 00:38:42;;;;;;;1.80;0.40;;;;;;;11.37;65.45;99089.41;344721;28;1201;-69
2023/01/13 00:38:55;;;;;;;1.15;0.30;;;;;;;11.40;65.47;99090.09;345311;28;1055;-69
2023/01/13 00:39:07;;;;;;;1.40;0.40;;;;;;;11.42;65.46;99087.44;346127;28;1063;-69
2023/01/13 00:39:19;;;;;;;1.48;0.43;;;;;;;11.45;65.60;99096.84;346411;28;1966;-69
2023/01/13 00:39:34;;;;;;;0.82;0.50;;;;;;;11.34;65.67;99100.78;346431;28;1620;-69
2023/01/13 00:39:46;;;;;;;1.38;0.80;;;;;;;11.37;65.87;99092.84;347407;28;1311;-70
2023/01/13 00:39:59;;;;;;;1.38;0.70;;;;;;;11.39;65.30;99095.41;347099;28;1974;-69
2023/01/13 00:40:11;;;;;;;1.90;0.63;;;;;;;11.39;65.51;99092.78;347518;28;1102;-69
2023/01/13 00:40:23;;;;;;;1.33;0.30;;;;;;;11.36;65.52;99087.72;347222;28;1302;-68
2023/01/13 00:40:35;;;;;;;1.00;0.38;;;;;;;11.37;65.68;99079.84;346879;28;2185;-69
2023/01/13 00:41:01;;;;;;;1.15;0.30;;;;;;;11.48;65.43;99081.94;347655;28;965;-69
2023/01/13 00:41:18;;;;;;;1.98;0.40;;;;;;;11.49;65.58;99077.59;345904;28;1090;-69
2023/01/13 00:43:21;;;;;;;2.40;0.40;;;;;;;11.47;65.71;99084.63;345848;28;1271;-69
2023/01/13 00:43:22;;;;;;;1.42;0.43;;;;;;;11.41;65.75;99080.56;347735;28;1054;-68
2023/01/13 00:43:35;;;;;;;1.48;0.45;;;;;;;11.38;65.75;99085.88;348055;28;828;-68
2023/01/13 00:43:47;;;;;;;0.95;0.40;;;;;;;11.38;65.81;99085.88;347676;28;1090;-69
2023/01/13 00:43:59;;;;;;;1.30;0.40;;;;;;;11.37;66.24;99081.63;347255;28;1595;-69
2023/01/13 00:44:11;;;;;;;1.50;0.40;;;;;;;11.40;66.08;99077.09;346239;28;1588;-71
2023/01/13 00:44:23;;;;;;;1.40;0.40;;;;;;;11.39;65.85;99082.38;347370;28;1269;-69
2023/01/13 00:44:35;;;;;;;1.30;0.35;;;;;;;11.39;65.76;99085.81;347514;28;1652;-69
2023/01/13 00:44:47;;;;;;;0.95;0.50;;;;;;;11.42;65.57;99084.84;347573;28;1626;-68
2023/01/13 00:44:59;;;;;;;0.93;0.50;;;;;;;11.44;65.94;99090.81;347765;28;1263;-68
2023/01/13 00:45:11;;;;;;;1.42;0.50;;;;;;;11.41;65.47;99093.56;347835;28;1094;-69
2023/01/13 00:45:23;;;;;;;1.30;0.40;;;;;;;11.50;65.51;99069.72;346743;28;1658;-69
2023/01/13 00:45:37;;;;;;;1.73;0.40;;;;;;;11.49;65.49;99078.44;345784;28;1106;-69
2023/01/13 00:45:52;;;;;;;1.45;0.40;;;;;;;11.43;65.50;99078.72;344889;28;1242;-69
2023/01/13 00:46:06;;;;;;;1.63;0.70;;;;;;;11.50;65.49;99082.72;344640;28;1067;-69
2023/01/13 00:46:20;;;;;;;1.15;0.70;;;;;;;11.52;65.43;99086.09;344661;28;1951;-70
2023/01/13 00:46:32;;;;;;;0.75;0.40;;;;;;;11.50;65.71;99064.50;345185;28;1708;-71
2023/01/13 00:46:44;;;;;;;1.50;0.50;;;;;;;11.57;65.49;99089.34;345095;28;759;-70
2023/01/13 00:46:56;;;;;;;1.53;0.47;;;;;;;11.65;64.98;99073.38;344700;28;1916;-71
2023/01/13 00:47:08;;;;;;;1.00;0.50;;;;;;;11.66;64.75;99053.41;344993;28;1029;-70
2023/01/13 00:47:22;;;;;;;1.00;0.50;;;;;;;11.65;65.13;99064.72;345432;28;1547;-69
2023/01/13 00:47:34;;;;;;;1.38;0.50;;;;;;;11.61;64.87;99071.84;347182;28;1565;-69
2023/01/13 00:47:46;;;;;;;2.13;0.40;;;;;;;11.51;65.34;99076.63;347937;28;976;-69
2023/01/13 00:47:58;;;;;;;2.45;0.40;;;;;;;11.51;65.57;99076.63;347419;28;1668;-71
2023/01/13 00:48:10;;;;;;;1.75;0.30;;;;;;;11.42;66.08;99071.81;346953;28;1641;-69
2023/01/13 00:48:23;;;;;;;0.98;0.40;;;;;;;11.38;65.79;99070.28;345804;28;1833;-69
2023/01/13 00:48:36;;;;;;;2.10;0.40;;;;;;;11.40;65.84;99068.44;345468;28;1818;-69
2023/01/13 00:48:48;;;;;;;2.28;0.45;;;;;;;11.39;65.84;99087.59;346136;28;1086;-71
2023/01/13 00:49:00;;;;;;;1.30;0.30;;;;;;;11.45;65.83;99061.28;345826;28;1899;-70
2023/01/13 00:49:12;;;;;;;0.70;0.30;;;;;;;11.51;65.40;99068.81;346408;28;1351;-70
2023/01/13 00:49:24;;;;;;;0.90;0.30;;;;;;;11.53;65.47;99066.97;346240;28;1220;-70
2023/01/13 00:49:36;;;;;;;2.05;0.40;;;;;;;11.49;65.09;99046.34;345383;28;1838;-75
2023/01/13 00:49:49;;;;;;;3.08;0.50;;;;;;;11.57;65.56;99060.72;345947;28;1695;-70
2023/01/13 00:50:00;;;;;;;2.67;0.52;;;;;;;11.48;65.21;99061.13;346931;28;1476;-69
2023/01/13 00:50:12;;;;;;;1.08;0.38;;;;;;;11.50;65.73;99072.31;345285;28;2202;-69
2023/01/13 00:50:25;;;;;;;0.80;0.35;;;;;;;11.52;65.31;99067.88;345846;28;1357;-69
2023/01/13 00:50:37;;;;;;;0.75;0.32;;;;;;;11.55;65.39;99078.16;347508;28;1174;-69
2023/01/13 00:51:08;;;;;;;0.98;0.40;;;;;;;11.64;65.45;99068.25;346925;28;2208;-69
2023/01/13 00:51:20;;;;;;;1.08;0.30;;;;;;;11.52;65.35;99057.47;345955;28;1331;-70
2023/01/13 00:51:32;;;;;;;0.77;0.30;;;;;;;11.46;65.61;99073.38;346220;28;1304;-69
2023/01/13 00:51:44;;;;;;;1.10;0.40;;;;;;;11.42;65.54;99066.63;345524;28;1772;-70
2023/01/13 00:51:56;;;;;;;1.38;0.43;;;;;;;11.42;65.59;99065.78;345050;28;873;-69
2023/01/13 00:52:09;;;;;;;1.27;0.40;;;;;;;11.48;65.56;99071.53;344956;28;1019;-70
2023/01/13 00:52:21;;;;;;;0.95;0.40;;;;;;;11.53;65.52;99053.97;345529;28;1205;-68
2023/01/13 00:52:33;;;;;;;0.70;0.40;;;;;;;11.55;65.24;99067.75;344555;28;1249;-69
2023/01/13 00:52:45;;;;;;;0.75;0.40;;;;;;;11.56;65.11;99066.81;344822;28;1202;-69
2023/01/13 00:53:00;;;;;;;2.20;0.52;;;;;;;11.61;65.33;99051.03;344240;28;1901;-69
2023/01/13 00:53:13;;;;;;;2.90;0.57;;;;;;;11.55;64.87;99064.28;344614;28;1811;-69
2023/01/13 00:53:27;;;;;;;1.92;0.50;;;;;;;11.50;64.96;99064.50;343624;28;1866;-69
2023/01/13 00:53:42;;;;;;;1.88;0.55;;;;;;;11.44;65.50;99059.59;343411;28;1153;-69
2023/01/13 00:53:54;;;;;;;0.93;0.40;;;;;;;11.40;65.65;99052.84;343237;28;1542;-73
2023/01/13 00:54:06;;;;;;;1.27;0.43;;;;;;;11.47;65.81;99061.19;343467;28;1401;-69
2023/01/13 00:54:18;;;;;;;1.85;0.50;;;;;;;11.49;65.36;99060.22;343771;28;1373;-71
2023/01/13 00:54:30;;;;;;;1.92;0.50;;;;;;;11.53;65.63;99059.19;344777;28;1243;-71
2023/01/13 00:54:42;;;;;;;1.63;0.40;;;;;;;11.49;65.20;99060.22;344866;28;1139;-69
2023/01/13 00:54:54;;;;;;;1.95;0.45;;;;;;;11.50;65.45;99058.47;343978;28;1718;-69
2023/01/13 00:55:06;;;;;;;1.30;0.50;;;;;;;11.51;65.15;99055.81;345392;28;1851;-70
2023/01/13 00:55:18;;;;;;;1.10;0.50;;;;;;;11.52;65.15;99059.25;346328;28;1596;-71
2023/01/13 00:55:31;;;;;;;1.48;0.50;;;;;;;11.50;65.64;99064.50;347352;28;1187;-70
2023/01/13 00:55:46;;;;;;;1.52;0.43;;;;;;;11.51;65.06;99060.13;348470;28;1133;-69
2023/01/13 00:56:04;;;;;;;1.00;0.40;;;;;;;11.55;64.87;99057.34;349136;28;2176;-69
2023/01/13 00:56:19;;;;;;;1.27;0.40;;;;;;;11.59;64.90;99069.31;346168;28;1956;-70
2023/01/13 00:56:49;;;;;;;1.13;0.47;;;;;;;11.60;64.82;99070.97;346995;28;1847;-69
2023/01/13 00:57:03;;;;;;;1.35;0.45;;;;;;;11.62;64.89;99068.31;347521;28;1709;-69
2023/01/13 00:57:15;;;;;;;2.40;0.40;;;;;;;11.62;64.78;99057.06;347155;28;1609;-69
2023/01/13 00:57:27;;;;;;;2.00;0.40;;;;;;;11.58;65.25;99070.19;347082;28;1674;-69
2023/01/13 00:57:39;;;;;;;1.67;0.43;;;;;;;11.66;64.77;99058.59;345750;28;1110;-70
2023/01/13 00:57:51;;;;;;;0.40;0.40;;;;;;;11.71;64.45;99056.63;346078;28;1071;-69
2023/01/13 00:58:03;;;;;;;1.02;0.40;;;;;;;11.68;64.29;99067.19;345538;28;1657;-69
2023/01/13 00:58:15;;;;;;;1.27;0.40;;;;;;;11.72;64.71;99055.72;345374;28;1920;-70
2023/01/13 00:58:29;;;;;;;1.00;0.40;;;;;;;11.65;64.37;99064.72;346266;28;1149;-69
2023/01/13 00:58:43;;;;;;;0.85;0.40;;;;;;;11.63;64.41;99070.00;344817;28;1228;-69
2023/01/13 00:58:57;;;;;;;1.20;0.35;;;;;;;11.67;64.58;99049.88;344934;28;1075;-70
2023/01/13 00:59:11;;;;;;;2.22;0.40;;;;;;;11.67;64.48;99049.88;346053;28;1066;-69
2023/01/13 00:59:23;;;;;;;4.10;0.47;;;;;;;11.60;64.59;99060.56;345408;28;1727;-69
2023/01/13 00:59:35;;;;;;;2.60;0.40;;;;;;;11.63;65.02;99063.94;344552;28;1898;-69
2023/01/13 00:59:47;;;;;;;1.10;0.30;;;;;;;11.55;64.51;99075.56;345911;28;1047;-69
2023/01/13 01:00:00;;;;;;;1.30;0.30;;;;;;;11.54;64.87;99044.41;346036;28;1043;-69
2023/01/13 01:00:13;;;;;;;0.73;0.30;;;;;;;11.53;64.87;99069.59;346016;28;1329;-70
2023/01/13 01:00:25;;;;;;;1.48;0.40;;;;;;;11.56;65.08;99074.63;347264;28;1412;-69
2023/01/13 01:00:37;;;;;;;1.52;0.40;;;;;;;11.58;64.69;99071.97;347186;28;1620;-69
2023/01/13 01:00:49;;;;;;;1.15;0.50;;;;;;;11.50;64.75;99067.09;346128;28;1523;-68
2023/01/13 01:01:04;;;;;;;1.85;0.50;;;;;;;11.59;64.79;99069.31;346185;28;1078;-68
2023/01/13 01:01:21;;;;;;;3.15;0.47;;;;;;;11.70;64.47;99049.72;346369;28;1215;-69
2023/01/13 01:01:33;;;;;;;2.63;0.50;;;;;;;11.67;64.37;99066.34;346534;28;1555;-69
2023/01/13 01:01:45;;;;;;;1.50;0.50;;;;;;;11.72;64.08;99061.75;345839;28;1415;-69
2023/01/13 01:01:57;;;;;;;1.38;0.50;;;;;;;11.76;64.17;99055.50;343928;28;1188;-69
2023/01/13 01:02:10;;;;;;;0.50;0.40;;;;;;;11.79;64.09;99059.69;345061;28;986;-69
2023/01/13 01:02:22;;;;;;;1.20;0.50;;;;;;;11.76;64.05;99059.88;344695;28;1835;-68
2023/01/13 01:02:34;;;;;;;1.30;0.60;;;;;;;11.78;63.80;99063.25;344958;28;1245;-69
2023/01/13 01:02:46;;;;;;;1.30;0.35;;;;;;;11.67;64.40;99055.94;344733;28;1416;-69
2023/01/13 01:02:58;;;;;;;0.75;0.30;;;;;;;11.70;64.65;99060.16;346190;28;1109;-69
2023/01/13 01:03:11;;;;;;;0.47;0.20;;;;;;;11.60;64.64;99055.34;345818;28;1943;-69
2023/01/13 01:03:23;;;;;;;0.45;0.30;;;;;;;11.70;64.29;99057.53;344984;28;1310;-69
2023/01/13 01:03:35;;;;;;;0.63;0.30;;;;;;;11.69;64.63;99058.44;344743;28;1605;-69
2023/01/13 01:03:49;;;;;;;0.70;0.32;;;;;;;11.67;64.50;99049.88;343635;28;1341;-69
2023/01/13 01:04:01;;;;;;;0.60;0.40;;;;;;;11.64;64.74;99053.47;344612;28;1162;-72
2023/01/13 01:04:13;;;;;;;0.40;0.30;;;;;;;11.67;64.64;99034.25;346149;28;1081;-71
2023/01/13 01:04:25;;;;;;;0.20;0.20;;;;;;;11.73;64.61;99057.38;346019;28;1233;-71
2023/01/13 01:04:37;;;;;;;0.20;0.20;;;;;;;11.76;64.26;99054.66;345962;28;1022;-70
2023/01/13 01:04:49;;;;;;;0.38;0.20;;;;;;;11.72;64.54;99053.13;345986;28;1813;-69
2023/01/13 01:05:01;;;;;;;0.38;0.30;;;;;;;11.67;64.47;99036.84;345817;28;2178;-69
2023/01/13 01:05:26;;;;;;;0.50;0.38;;;;;;;11.67;64.51;99055.94;344473;28;1748;-71
2023/01/13 01:05:38;;;;;;;1.40;0.47;;;;;;;11.55;64.74;99062.56;346161;28;1630;-69